Un Karadeniz — TCTD3 — position and weather

sailwx.info

Track history (hours):
 
Tides and Currents Weather Stations Pressure Air Temp Water Temp Dewpoint Dewpoint Depression Visibility Wind Speed Wind Dir Waves Ship Positions

Un Karadeniz

Last reported at 2017-Feb-20 05:33 UTC. Time now 2017-Feb-23 18:40 UTC.
Position N 43°58' E 014°13'.

Length 193 m; draft 7 m.

Type: Ship (hazmat cat A). MMSI: 271002571.

Date/timePositionNaut miles runAvg speedWind from/ knotsBaromVisibWave heightAir tempDewpointWater temp
2017-Feb-20 05:33N 43°58' E 014°13'1919.2
2017-Feb-20 04:33N 44°14' E 013°57'1919.1
2017-Feb-20 03:33N 44°29' E 013°43'1919.0
2017-Feb-20 02:33N 44°45' E 013°28'1918.9
2017-Feb-20 01:33N 45°01' E 013°14'1918.6
2017-Feb-20 00:33N 45°19' E 013°04'1817.8
2017-Feb-19 23:33N 45°32' E 013°20'1817.8
2017-Feb-19 22:33N 45°39' E 013°43'1 1.3
2017-Feb-19 21:32N 45°39' E 013°45'0 0.0
2017-Feb-19 20:32N 45°39' E 013°45'0 0.0
2017-Feb-19 19:28N 45°39' E 013°45'0 0.0
2017-Feb-19 18:31N 45°39' E 013°45'0 0.0
2017-Feb-19 17:31N 45°39' E 013°45'0 0.0
2017-Feb-19 16:33N 45°39' E 013°45'0 0.0
2017-Feb-19 15:33N 45°39' E 013°45'0 0.0
2017-Feb-19 14:29N 45°39' E 013°45'0 0.0
2017-Feb-19 13:32N 45°39' E 013°45'0 0.0
2017-Feb-19 12:19N 45°39' E 013°45'0 0.0
2017-Feb-19 11:33N 45°39' E 013°45'10 9.7
2017-Feb-19 10:33N 45°35' E 013°32'1918.9
2017-Feb-19 09:33N 45°21' E 013°14'2019.7
2017-Feb-19 08:33N 45°02' E 013°21'2019.7
2017-Feb-19 07:33N 44°45' E 013°35'2019.6
2017-Feb-19 06:33N 44°28' E 013°49'  
2017-Feb-13 01:33N 44°18' E 013°53'1919.5
2017-Feb-13 00:33N 44°34' E 013°38'1919.5
2017-Feb-12 23:33N 44°51' E 013°24'1919.2
2017-Feb-12 22:33N 45°07' E 013°09'1717.2
2017-Feb-12 21:34N 45°24' E 013°07'1918.5
2017-Feb-12 20:33N 45°35' E 013°27'1312.6
2017-Feb-12 19:33N 45°39' E 013°45'0 0.0
2017-Feb-12 18:32N 45°39' E 013°45'0 0.0
2017-Feb-12 17:32N 45°39' E 013°45'0 0.0
2017-Feb-12 16:31N 45°39' E 013°45'0 0.0
2017-Feb-12 15:31N 45°39' E 013°45'0 0.0
2017-Feb-12 14:33N 45°39' E 013°45'0 0.0
2017-Feb-12 13:33N 45°39' E 013°45'0 0.0
2017-Feb-12 12:33N 45°39' E 013°45'0 0.0
2017-Feb-12 11:32N 45°39' E 013°45'0 0.0
2017-Feb-12 10:29N 45°39' E 013°45'0 0.0
2017-Feb-12 09:31N 45°39' E 013°45'0 0.0
2017-Feb-12 08:25N 45°39' E 013°45'1 0.7
2017-Feb-12 07:33N 45°39' E 013°44'1717.1
2017-Feb-12 06:34N 45°31' E 013°23'1817.5
2017-Feb-12 05:33N 45°14' E 013°15'2019.5
2017-Feb-12 04:34N 44°56' E 013°25'1919.4
2017-Feb-12 03:34N 44°40' E 013°40'1919.5
2017-Feb-12 02:34N 44°23' E 013°54'2019.5
2017-Feb-12 01:33N 44°07' E 014°09'  
Track history (hours):
 
Tides and Currents Weather Stations Pressure Air Temp Water Temp Dewpoint Dewpoint Depression Visibility Wind Speed Wind Dir Waves Ship Positions

Un Karadeniz

Last reported at 2017-Feb-20 05:33 UTC. Time now 2017-Feb-23 18:40 UTC.
Position N 43°58' E 014°13'.

Length 193 m; draft 7 m.

Type: Ship (hazmat cat A). MMSI: 271002571.

Date/timePositionNaut miles runAvg speedWind from/ knotsBaromVisibWave heightAir tempDewpointWater temp
2017-Feb-20 05:33N 43°58' E 014°13'1919.2
2017-Feb-20 04:33N 44°14' E 013°57'1919.1
2017-Feb-20 03:33N 44°29' E 013°43'1919.0
2017-Feb-20 02:33N 44°45' E 013°28'1918.9
2017-Feb-20 01:33N 45°01' E 013°14'1918.6
2017-Feb-20 00:33N 45°19' E 013°04'1817.8
2017-Feb-19 23:33N 45°32' E 013°20'1817.8
2017-Feb-19 22:33N 45°39' E 013°43'1 1.3
2017-Feb-19 21:32N 45°39' E 013°45'0 0.0
2017-Feb-19 20:32N 45°39' E 013°45'0 0.0
2017-Feb-19 19:28N 45°39' E 013°45'0 0.0
2017-Feb-19 18:31N 45°39' E 013°45'0 0.0
2017-Feb-19 17:31N 45°39' E 013°45'0 0.0
2017-Feb-19 16:33N 45°39' E 013°45'0 0.0
2017-Feb-19 15:33N 45°39' E 013°45'0 0.0
2017-Feb-19 14:29N 45°39' E 013°45'0 0.0
2017-Feb-19 13:32N 45°39' E 013°45'0 0.0
2017-Feb-19 12:19N 45°39' E 013°45'0 0.0
2017-Feb-19 11:33N 45°39' E 013°45'10 9.7
2017-Feb-19 10:33N 45°35' E 013°32'1918.9
2017-Feb-19 09:33N 45°21' E 013°14'2019.7
2017-Feb-19 08:33N 45°02' E 013°21'2019.7
2017-Feb-19 07:33N 44°45' E 013°35'2019.6
2017-Feb-19 06:33N 44°28' E 013°49'  
2017-Feb-13 01:33N 44°18' E 013°53'1919.5
2017-Feb-13 00:33N 44°34' E 013°38'1919.5
2017-Feb-12 23:33N 44°51' E 013°24'1919.2
2017-Feb-12 22:33N 45°07' E 013°09'1717.2
2017-Feb-12 21:34N 45°24' E 013°07'1918.5
2017-Feb-12 20:33N 45°35' E 013°27'1312.6
2017-Feb-12 19:33N 45°39' E 013°45'0 0.0
2017-Feb-12 18:32N 45°39' E 013°45'0 0.0
2017-Feb-12 17:32N 45°39' E 013°45'0 0.0
2017-Feb-12 16:31N 45°39' E 013°45'0 0.0
2017-Feb-12 15:31N 45°39' E 013°45'0 0.0
2017-Feb-12 14:33N 45°39' E 013°45'0 0.0
2017-Feb-12 13:33N 45°39' E 013°45'0 0.0
2017-Feb-12 12:33N 45°39' E 013°45'0 0.0
2017-Feb-12 11:32N 45°39' E 013°45'0 0.0
2017-Feb-12 10:29N 45°39' E 013°45'0 0.0
2017-Feb-12 09:31N 45°39' E 013°45'0 0.0
2017-Feb-12 08:25N 45°39' E 013°45'1 0.7
2017-Feb-12 07:33N 45°39' E 013°44'1717.1
2017-Feb-12 06:34N 45°31' E 013°23'1817.5
2017-Feb-12 05:33N 45°14' E 013°15'2019.5
2017-Feb-12 04:34N 44°56' E 013°25'1919.4
2017-Feb-12 03:34N 44°40' E 013°40'1919.5
2017-Feb-12 02:34N 44°23' E 013°54'2019.5
2017-Feb-12 01:33N 44°07' E 014°09'  

Dump ship's entire track history